Terminal Aerodrome Forecast
Issued by NWS Green Bay, WI

Home | Current Version | Previous Version | Graphics & Text | Print | Product List | Glossary On
Versions: 1 2 3 4 5 6 7 8 9 10 11 12 13 14 15 16 17 18 19 20 21 22 23 24 25 26 27 28 29 30 31 32 33 34 35 36
000
FTUS43 KGRB 201700
TAFGRB
TAF
KGRB 201721Z 2018/2118 VRB03KT 6SM HZ BKN035 OVC080
     FM202200 VRB03KT P6SM OVC030
     FM210300 VRB03KT 5SM BR OVC018
     FM210700 VRB03KT 4SM -FZDZ BR OVC012
     FM211100 15004KT 4SM -FZDZ BR OVC009
     FM211500 16008KT 5SM -FZDZ BR OVC012=

USA.gov is the U.S. government's official web portal to all federal, state and local government web resources and services.